createdAt,value
2023-04-04T00:01:05.057Z,4.90
2023-04-04T00:03:35.872Z,16.48
2023-04-04T00:06:06.656Z,13.38
2023-04-04T00:08:38.326Z,10.85
2023-04-04T00:11:09.024Z,9.35
2023-04-04T00:13:40.431Z,11.02
2023-04-04T00:16:11.752Z,9.27
2023-04-04T00:18:42.449Z,7.18
2023-04-04T00:21:12.989Z,6.60
2023-04-04T00:23:43.361Z,5.60
2023-04-04T00:26:13.775Z,5.40
2023-04-04T00:28:44.811Z,5.55
2023-04-04T00:31:15.423Z,5.10
2023-04-04T00:33:45.744Z,4.30
2023-04-04T00:36:16.244Z,4.82
2023-04-04T00:38:46.837Z,4.32
2023-04-04T00:41:18.526Z,4.72
2023-04-04T00:43:49.456Z,4.75
2023-04-04T00:46:20.533Z,4.80
2023-04-04T00:48:52.732Z,4.05
2023-04-04T00:51:23.344Z,5.05
2023-04-04T00:53:55.421Z,4.72
2023-04-04T00:56:26.809Z,4.40
2023-04-04T00:58:59.272Z,3.78
2023-04-04T01:01:29.697Z,3.45
2023-04-04T01:04:00.839Z,3.75
2023-04-04T01:06:34.269Z,3.60
2023-04-04T01:09:05.290Z,3.40
2023-04-04T01:11:36.534Z,3.25
2023-04-04T01:14:07.884Z,3.17
2023-04-04T01:16:38.934Z,3.58
2023-04-04T01:19:13.674Z,2.67
2023-04-04T01:21:45.142Z,2.55
2023-04-04T01:24:20.111Z,3.10
2023-04-04T01:26:57.111Z,2.38
2023-04-04T01:29:27.595Z,2.50
2023-04-04T01:32:06.529Z,2.40
2023-04-04T01:34:59.134Z,2.40
2023-04-04T01:37:57.389Z,2.20
2023-04-04T01:40:31.867Z,2.30
2023-04-04T01:43:02.632Z,2.17
2023-04-04T01:45:36.896Z,2.38
2023-04-04T01:48:12.701Z,1.95
2023-04-04T01:50:44.276Z,2.10
2023-04-04T01:53:14.732Z,1.77
2023-04-04T01:55:45.491Z,1.88
2023-04-04T01:58:18.304Z,1.92
2023-04-04T02:00:49.137Z,2.05
2023-04-04T02:03:19.739Z,1.65
2023-04-04T02:05:50.356Z,2.03
2023-04-04T02:08:20.878Z,1.90
2023-04-04T02:10:59.046Z,1.73
2023-04-04T02:13:30.411Z,1.90
2023-04-04T02:16:05.162Z,1.50
2023-04-04T02:18:37.879Z,1.77
2023-04-04T02:21:08.828Z,1.50
2023-04-04T02:23:40.678Z,1.70
2023-04-04T02:26:11.242Z,1.42
2023-04-04T02:28:42.267Z,1.60
2023-04-04T02:31:13.278Z,1.50
2023-04-04T02:33:43.799Z,1.77
2023-04-04T02:36:15.404Z,1.30
2023-04-04T02:38:47.586Z,1.38
2023-04-04T02:41:18.185Z,1.80
2023-04-04T02:43:48.705Z,1.35
2023-04-04T02:46:22.212Z,1.30
2023-04-04T02:49:00.009Z,1.50
2023-04-04T02:51:31.371Z,1.58
2023-04-04T02:54:04.466Z,1.30
2023-04-04T02:56:41.434Z,1.73
2023-04-04T02:59:12.696Z,1.10
2023-04-04T03:01:44.043Z,1.27
2023-04-04T03:04:15.378Z,1.27
2023-04-04T03:06:46.551Z,1.38
2023-04-04T03:09:17.738Z,1.52
2023-04-04T03:11:48.164Z,1.20
2023-04-04T03:14:18.563Z,1.30
2023-04-04T03:16:51.516Z,2.53
2023-04-04T03:21:53.907Z,1.45
2023-04-04T03:24:24.403Z,1.70
2023-04-04T03:26:55.074Z,2.30
2023-04-04T03:29:27.128Z,2.08
2023-04-04T03:31:59.149Z,2.53
2023-04-04T03:34:30.897Z,2.20
2023-04-04T03:37:02.937Z,2.63
2023-04-04T03:39:34.909Z,3.20
2023-04-04T03:44:38.911Z,3.10
2023-04-04T03:47:12.164Z,3.58
2023-04-04T03:49:43.901Z,4.88
2023-04-04T03:52:16.845Z,5.28
2023-04-04T03:54:48.859Z,5.95
2023-04-04T03:57:20.933Z,6.40
2023-04-04T03:59:52.255Z,6.40
2023-04-04T04:02:26.505Z,6.80
2023-04-04T04:04:57.349Z,5.88
2023-04-04T04:07:28.303Z,6.80
2023-04-04T04:09:59.633Z,7.30
2023-04-04T04:12:31.394Z,8.00
2023-04-04T04:15:02.608Z,8.07
2023-04-04T04:17:37.068Z,8.38
2023-04-04T04:20:10.051Z,8.60
2023-04-04T04:22:54.308Z,8.90
2023-04-04T04:25:25.310Z,10.07
2023-04-04T04:28:05.765Z,9.75
2023-04-04T04:30:36.297Z,9.10
2023-04-04T04:33:07.452Z,8.30
2023-04-04T04:35:45.653Z,7.28
2023-04-04T04:38:16.377Z,6.70
2023-04-04T04:40:47.735Z,6.00
2023-04-04T04:43:25.994Z,6.60
2023-04-04T04:45:57.250Z,5.57
2023-04-04T04:48:28.889Z,8.90
2023-04-04T04:51:01.448Z,5.40
2023-04-04T04:53:40.896Z,5.22
2023-04-04T04:56:11.412Z,5.38
2023-04-04T04:58:46.986Z,4.88
2023-04-04T05:01:23.790Z,5.68
2023-04-04T05:03:54.580Z,4.30
2023-04-04T05:06:32.671Z,4.32
2023-04-04T05:09:03.820Z,3.80
2023-04-04T05:11:39.034Z,3.63
2023-04-04T05:14:12.746Z,3.80
2023-04-04T05:16:52.142Z,3.30
2023-04-04T05:19:24.344Z,3.40
2023-04-04T05:21:58.599Z,3.40
2023-04-04T05:24:37.958Z,3.80
2023-04-04T05:27:10.162Z,3.27
2023-04-04T05:29:47.813Z,3.45
2023-04-04T05:32:18.948Z,2.90
2023-04-04T05:34:56.892Z,3.22
2023-04-04T05:37:29.556Z,3.10
2023-04-04T05:40:00.338Z,3.30
2023-04-04T05:42:30.900Z,2.85
2023-04-04T05:45:03.004Z,3.13
2023-04-04T05:47:33.897Z,3.20
2023-04-04T05:55:14.263Z,2.72
2023-04-04T05:57:54.383Z,2.58
2023-04-04T06:00:34.824Z,2.80
2023-04-04T06:03:10.245Z,3.00
2023-04-04T06:05:40.978Z,3.10
2023-04-04T06:08:12.496Z,2.85
2023-04-04T06:10:43.603Z,2.63
2023-04-04T06:13:14.181Z,2.70
2023-04-04T06:15:49.491Z,2.60
2023-04-04T06:18:23.160Z,2.85
2023-04-04T06:20:53.556Z,2.70
2023-04-04T06:23:24.041Z,2.45
2023-04-04T06:25:56.183Z,2.42
2023-04-04T06:28:27.615Z,2.00
2023-04-04T06:30:58.102Z,2.08
2023-04-04T06:33:35.151Z,1.98
2023-04-04T06:36:06.122Z,2.22
2023-04-04T06:38:36.821Z,1.92
2023-04-04T06:41:12.924Z,2.53
2023-04-04T06:43:43.549Z,2.38
2023-04-04T06:46:14.381Z,2.28
2023-04-04T06:48:45.229Z,2.13
2023-04-04T06:51:15.660Z,2.15
2023-04-04T06:53:48.290Z,2.22
2023-04-04T06:56:18.778Z,2.15
2023-04-04T06:58:49.208Z,1.83
2023-04-04T07:01:19.732Z,2.22
2023-04-04T07:03:50.845Z,2.20
2023-04-04T07:06:25.211Z,1.90
2023-04-04T07:08:56.269Z,1.95
2023-04-04T07:11:26.774Z,2.13
2023-04-04T07:13:57.238Z,2.33
2023-04-04T07:16:27.512Z,2.08
2023-04-04T07:18:58.328Z,1.80
2023-04-04T07:21:28.728Z,2.00
2023-04-04T07:23:59.532Z,1.73
2023-04-04T07:26:30.306Z,2.28
2023-04-04T07:29:00.826Z,2.05
2023-04-04T07:31:31.327Z,2.13
2023-04-04T07:34:01.671Z,2.25
2023-04-04T07:36:32.220Z,2.00
2023-04-04T07:39:02.482Z,2.05
2023-04-04T07:41:33.057Z,2.30
2023-04-04T07:44:03.465Z,2.10
2023-04-04T07:46:34.312Z,2.05
2023-04-04T07:49:04.950Z,2.47
2023-04-04T07:51:37.023Z,2.47
2023-04-04T07:54:07.737Z,3.00
2023-04-04T07:56:38.233Z,2.67
2023-04-04T07:59:08.748Z,2.20
2023-04-04T08:01:39.242Z,2.25
2023-04-04T08:04:09.727Z,1.70
2023-04-04T08:06:41.324Z,2.13
2023-04-04T08:09:11.991Z,1.92
2023-04-04T08:11:42.780Z,3.25
2023-04-04T08:14:16.145Z,3.00
2023-04-04T08:16:46.561Z,2.40
2023-04-04T08:19:18.133Z,2.35
2023-04-04T08:21:49.299Z,2.07
2023-04-04T08:24:20.808Z,2.65
2023-04-04T08:26:58.330Z,2.30
2023-04-04T08:29:35.892Z,2.85
2023-04-04T08:32:06.676Z,2.50
2023-04-04T08:34:37.312Z,3.13
2023-04-04T08:37:08.228Z,3.63
2023-04-04T08:39:39.609Z,2.50
2023-04-04T08:42:10.981Z,3.70
2023-04-04T08:44:44.212Z,2.90
2023-04-04T08:47:16.125Z,3.47
2023-04-04T08:49:49.106Z,3.00
2023-04-04T08:52:23.265Z,3.70
2023-04-04T08:54:54.377Z,3.55
2023-04-04T08:57:24.849Z,2.20
2023-04-04T08:59:56.303Z,2.30
2023-04-04T09:02:42.126Z,3.15
2023-04-04T09:05:15.033Z,2.60
2023-04-04T09:07:46.612Z,2.63
2023-04-04T09:10:17.364Z,2.90
2023-04-04T09:12:50.472Z,2.13
2023-04-04T09:17:51.412Z,2.28
2023-04-04T09:20:48.871Z,1.67
2023-04-04T09:23:25.614Z,2.38
2023-04-04T09:28:31.410Z,2.28
2023-04-04T09:31:08.750Z,2.17
2023-04-04T09:33:41.321Z,2.00
2023-04-04T09:36:15.483Z,1.85
2023-04-04T09:38:50.168Z,1.83
2023-04-04T09:41:22.419Z,2.08
2023-04-04T09:43:53.696Z,2.05
2023-04-04T09:46:24.956Z,2.10
2023-04-04T09:48:57.073Z,1.90
2023-04-04T09:51:31.613Z,1.83
2023-04-04T09:54:02.223Z,1.75
2023-04-04T09:56:33.201Z,1.80
2023-04-04T09:59:05.410Z,1.95
2023-04-04T10:01:36.395Z,2.33
2023-04-04T10:04:07.883Z,2.40
2023-04-04T10:06:41.445Z,2.15
2023-04-04T10:09:11.948Z,2.90
2023-04-04T10:11:42.421Z,2.72
2023-04-04T10:14:13.765Z,3.40
2023-04-04T10:16:47.933Z,3.67
2023-04-04T10:19:20.797Z,3.67
2023-04-04T10:21:51.934Z,4.13
2023-04-04T10:24:23.233Z,4.63
2023-04-04T10:26:56.658Z,3.15
2023-04-04T10:29:27.909Z,3.75
2023-04-04T10:32:11.523Z,3.88
2023-04-04T10:35:05.706Z,3.90
2023-04-04T10:37:40.156Z,4.50
2023-04-04T10:40:15.841Z,4.70
2023-04-04T10:42:48.170Z,4.22
2023-04-04T10:47:53.596Z,4.43
2023-04-04T10:50:25.528Z,4.30
2023-04-04T10:52:56.516Z,4.05
2023-04-04T10:55:27.990Z,4.40
2023-04-04T10:57:58.749Z,4.55
2023-04-04T11:00:29.210Z,5.15
2023-04-04T11:03:04.202Z,3.78
2023-04-04T11:05:48.707Z,4.88
2023-04-04T11:08:22.151Z,4.80
2023-04-04T11:10:57.735Z,4.88
2023-04-04T11:13:37.240Z,5.18
2023-04-04T11:16:17.779Z,4.65
2023-04-04T11:18:49.349Z,4.63
2023-04-04T11:21:31.481Z,4.50
2023-04-04T11:24:22.559Z,4.78
2023-04-04T11:26:56.782Z,5.00
2023-04-04T11:29:55.994Z,4.68
2023-04-04T11:33:00.208Z,5.35
2023-04-04T11:35:41.873Z,4.72
2023-04-04T11:38:18.630Z,5.40
2023-04-04T11:40:59.467Z,5.18
2023-04-04T11:43:31.237Z,5.78
2023-04-04T11:46:10.459Z,5.45
2023-04-04T11:48:41.543Z,5.32
2023-04-04T11:51:13.378Z,5.47
2023-04-04T11:53:46.172Z,6.05
2023-04-04T11:56:18.442Z,5.93
2023-04-04T11:58:58.770Z,6.43
2023-04-04T12:01:42.004Z,5.70
2023-04-04T12:04:12.533Z,6.28
2023-04-04T12:06:44.381Z,6.43
2023-04-04T12:09:19.048Z,6.43
2023-04-04T12:11:50.397Z,5.25
2023-04-04T12:14:25.780Z,5.90
2023-04-04T12:17:03.812Z,6.03
2023-04-04T12:19:40.344Z,6.15
2023-04-04T12:22:10.846Z,6.70
2023-04-04T12:24:41.437Z,6.40
2023-04-04T12:27:12.030Z,6.10
2023-04-04T12:29:43.075Z,6.80
2023-04-04T12:32:15.846Z,6.07
2023-04-04T12:34:50.780Z,6.18
2023-04-04T12:37:25.018Z,6.45
2023-04-04T12:39:55.798Z,6.03
2023-04-04T12:42:27.550Z,6.28
2023-04-04T12:44:59.208Z,5.35
2023-04-04T12:47:30.198Z,6.25
2023-04-04T12:50:00.772Z,6.45
2023-04-04T12:52:36.690Z,6.30
2023-04-04T12:55:12.156Z,6.05
2023-04-04T12:57:42.592Z,6.30
2023-04-04T13:00:15.489Z,5.93
2023-04-04T13:02:48.375Z,5.30
2023-04-04T13:05:19.892Z,6.40
2023-04-04T13:07:50.738Z,5.93
2023-04-04T13:10:22.928Z,5.65
2023-04-04T13:13:05.155Z,5.93
2023-04-04T13:15:54.756Z,5.85
2023-04-04T13:18:27.146Z,5.70
2023-04-04T13:20:58.090Z,6.00
2023-04-04T13:23:28.548Z,5.30
2023-04-04T13:26:00.984Z,5.93
2023-04-04T13:28:31.434Z,6.32
2023-04-04T13:31:05.809Z,5.85
2023-04-04T13:33:36.864Z,5.55
2023-04-04T13:36:08.087Z,5.78
2023-04-04T13:38:38.703Z,5.72
2023-04-04T13:41:09.665Z,5.40
2023-04-04T13:43:40.115Z,5.45
2023-04-04T13:46:11.624Z,5.45
2023-04-04T13:48:42.137Z,5.70
2023-04-04T13:51:12.813Z,5.63
2023-04-04T13:53:43.511Z,5.40
2023-04-04T13:56:18.356Z,6.13
2023-04-04T13:58:52.340Z,5.35
2023-04-04T14:01:24.676Z,6.10
2023-04-04T14:03:55.139Z,5.70
2023-04-04T14:06:25.566Z,5.50
2023-04-04T14:08:56.649Z,5.85
2023-04-04T14:11:33.129Z,5.47
2023-04-04T14:14:03.548Z,5.43
2023-04-04T14:16:34.038Z,5.50
2023-04-04T14:19:06.078Z,5.40
2023-04-04T14:21:37.150Z,5.47
2023-04-04T14:24:07.632Z,5.10
2023-04-04T14:26:39.191Z,5.38
2023-04-04T14:29:09.764Z,5.60
2023-04-04T14:31:40.223Z,5.57
2023-04-04T14:34:10.621Z,5.13
2023-04-04T14:36:41.059Z,5.03
2023-04-04T14:39:11.703Z,5.40
2023-04-04T14:41:42.370Z,5.35
2023-04-04T14:44:12.776Z,5.40
2023-04-04T14:46:43.191Z,5.60
2023-04-04T14:49:13.648Z,5.00
2023-04-04T14:51:44.080Z,5.20
2023-04-04T14:54:14.495Z,5.50
2023-04-04T14:56:46.422Z,5.50
2023-04-04T14:59:17.065Z,5.70
2023-04-04T15:01:48.150Z,5.10
2023-04-04T15:04:18.736Z,5.38
2023-04-04T15:06:49.406Z,5.13
2023-04-04T15:09:19.868Z,5.00
2023-04-04T15:11:51.224Z,5.00
2023-04-04T15:14:21.598Z,5.20
2023-04-04T15:16:52.607Z,5.47
2023-04-04T15:19:23.310Z,4.93
2023-04-04T15:21:54.296Z,5.28
2023-04-04T15:24:24.908Z,4.80
2023-04-04T15:26:56.566Z,5.03
2023-04-04T15:29:28.144Z,4.93
2023-04-04T15:31:59.393Z,5.20
2023-04-04T15:34:29.914Z,4.95
2023-04-04T15:37:04.002Z,5.55
2023-04-04T15:39:45.992Z,5.55
2023-04-04T15:42:22.779Z,4.75
2023-04-04T15:44:53.211Z,5.03
2023-04-04T15:47:23.928Z,5.22
2023-04-04T15:49:54.362Z,5.10
2023-04-04T15:52:25.049Z,5.00
2023-04-04T15:54:56.088Z,5.10
2023-04-04T15:57:28.661Z,5.03
2023-04-04T15:59:59.093Z,5.03
2023-04-04T16:02:30.347Z,5.00
2023-04-04T16:05:01.387Z,5.20
2023-04-04T16:07:34.063Z,4.88
2023-04-04T16:10:06.079Z,4.82
2023-04-04T16:12:37.155Z,5.32
2023-04-04T16:15:09.703Z,4.72
2023-04-04T16:17:40.940Z,4.55
2023-04-04T16:20:13.079Z,4.43
2023-04-04T16:22:44.305Z,4.95
2023-04-04T16:25:15.053Z,4.30
2023-04-04T16:27:45.784Z,4.30
2023-04-04T16:30:17.845Z,4.68
2023-04-04T16:32:49.447Z,4.28
2023-04-04T16:35:20.871Z,4.97
2023-04-04T16:37:52.734Z,4.72
2023-04-04T16:40:24.615Z,4.63
2023-04-04T16:42:55.947Z,4.28
2023-04-04T16:45:27.121Z,5.10
2023-04-04T16:47:57.814Z,4.57
2023-04-04T16:50:28.575Z,4.32
2023-04-04T16:52:59.067Z,5.18
2023-04-04T16:55:30.392Z,4.38
2023-04-04T16:58:01.633Z,4.78
2023-04-04T17:00:34.772Z,4.90
2023-04-04T17:03:05.890Z,4.25
2023-04-04T17:05:36.560Z,4.63
2023-04-04T17:08:07.684Z,4.32
2023-04-04T17:10:42.125Z,4.68
2023-04-04T17:13:13.955Z,4.80
2023-04-04T17:15:45.098Z,4.30
2023-04-04T17:18:15.853Z,5.10
2023-04-04T17:20:47.006Z,4.28
2023-04-04T17:23:18.854Z,4.70
2023-04-04T17:25:50.046Z,5.13
2023-04-04T17:28:21.157Z,4.75
2023-04-04T17:30:52.198Z,4.47
2023-04-04T17:33:24.970Z,4.82
2023-04-04T17:35:55.594Z,4.38
2023-04-04T17:38:26.278Z,4.82
2023-04-04T17:40:57.470Z,4.80
2023-04-04T17:43:29.865Z,4.57
2023-04-04T17:46:01.201Z,4.63
2023-04-04T17:48:34.023Z,4.47
2023-04-04T17:51:08.509Z,4.30
2023-04-04T17:53:39.000Z,4.50
2023-04-04T17:56:09.600Z,4.38
2023-04-04T17:58:40.341Z,4.65
2023-04-04T18:01:11.655Z,4.07
2023-04-04T18:03:42.726Z,4.38
2023-04-04T18:06:14.348Z,4.80
2023-04-04T18:08:45.842Z,4.43
2023-04-04T18:11:16.428Z,4.47
2023-04-04T18:13:47.264Z,4.40
2023-04-04T18:16:19.183Z,4.47
2023-04-04T18:18:50.037Z,4.15
2023-04-04T18:21:20.921Z,4.43
2023-04-04T18:23:52.115Z,4.30
2023-04-04T18:26:23.675Z,4.60
2023-04-04T18:28:54.634Z,4.47
2023-04-04T18:31:25.687Z,4.72
2023-04-04T18:33:57.433Z,4.78
2023-04-04T18:36:28.713Z,4.40
2023-04-04T18:38:59.976Z,4.15
2023-04-04T18:41:31.172Z,4.80
2023-04-04T18:44:02.078Z,4.20
2023-04-04T18:46:33.063Z,4.38
2023-04-04T18:49:04.081Z,4.30
2023-04-04T18:51:35.210Z,3.83
2023-04-04T18:54:06.746Z,4.25
2023-04-04T18:56:38.949Z,4.22
2023-04-04T18:59:10.696Z,3.80
2023-04-04T19:01:42.775Z,4.47
2023-04-04T19:04:16.541Z,3.95
2023-04-04T19:06:48.466Z,4.18
2023-04-04T19:09:21.438Z,3.63
2023-04-04T19:11:56.100Z,4.20
2023-04-04T19:14:27.946Z,4.45
2023-04-04T19:16:58.811Z,4.07
2023-04-04T19:19:30.885Z,4.00
2023-04-04T19:22:02.312Z,4.13
2023-04-04T19:24:33.686Z,4.00
2023-04-04T19:27:05.151Z,3.70
2023-04-04T19:29:38.559Z,3.75
2023-04-04T19:32:20.921Z,4.20
2023-04-04T19:34:52.045Z,4.20
2023-04-04T19:37:22.573Z,4.05
2023-04-04T19:39:53.036Z,3.67
2023-04-04T19:42:29.956Z,4.20
2023-04-04T19:45:00.355Z,3.55
2023-04-04T19:47:30.964Z,3.80
2023-04-04T19:50:01.415Z,3.65
2023-04-04T19:52:32.297Z,3.97
2023-04-04T19:55:05.018Z,3.42
2023-04-04T19:57:35.691Z,3.20
2023-04-04T20:00:17.909Z,3.83
2023-04-04T20:02:52.812Z,3.50
2023-04-04T20:05:33.655Z,3.90
2023-04-04T20:08:04.106Z,3.40
2023-04-04T20:10:44.447Z,3.83
2023-04-04T20:13:15.582Z,3.13
2023-04-04T20:15:45.972Z,3.47
2023-04-04T20:18:33.663Z,4.05
2023-04-04T20:21:09.334Z,3.53
2023-04-04T20:23:47.263Z,3.30
2023-04-04T20:26:37.779Z,3.55
2023-04-04T20:29:16.610Z,3.20
2023-04-04T20:31:59.209Z,3.40
2023-04-04T20:34:43.418Z,3.25
2023-04-04T20:37:23.257Z,3.10
2023-04-04T20:40:14.327Z,3.22
2023-04-04T20:42:45.540Z,2.97
2023-04-04T20:45:46.409Z,2.83
2023-04-04T20:48:58.745Z,2.28
2023-04-04T20:51:35.740Z,2.35
2023-04-04T20:54:06.246Z,2.00
2023-04-04T20:56:42.786Z,2.05
2023-04-04T20:59:30.854Z,1.80
2023-04-04T21:02:25.016Z,1.90
2023-04-04T21:04:55.741Z,1.80
2023-04-04T21:07:42.464Z,1.98
2023-04-04T21:10:51.557Z,1.63
2023-04-04T21:13:30.756Z,1.80
2023-04-04T21:16:04.443Z,1.52
2023-04-04T21:21:12.652Z,1.23
2023-04-04T21:23:58.922Z,1.75
2023-04-04T21:26:29.888Z,1.95
2023-04-04T21:29:03.507Z,1.40
2023-04-04T21:31:41.045Z,1.42
2023-04-04T21:34:14.467Z,1.52
2023-04-04T21:36:46.251Z,1.48
2023-04-04T21:39:38.101Z,1.35
2023-04-04T21:42:09.140Z,1.52
2023-04-04T21:44:40.207Z,1.65
2023-04-04T21:47:10.710Z,1.70
2023-04-04T21:49:41.082Z,1.30
2023-04-04T21:52:11.529Z,1.40
2023-04-04T21:54:42.091Z,1.58
2023-04-04T21:57:12.863Z,1.20
2023-04-04T21:59:43.204Z,1.40
2023-04-04T22:02:14.014Z,1.45
2023-04-04T22:04:44.406Z,1.40
2023-04-04T22:07:14.679Z,1.48
2023-04-04T22:09:47.960Z,1.27
2023-04-04T22:12:20.817Z,1.20
2023-04-04T22:17:26.033Z,1.20
2023-04-04T22:20:02.631Z,1.13
2023-04-04T22:22:34.289Z,1.20
2023-04-04T22:25:08.635Z,1.20
2023-04-04T22:27:42.459Z,20.95
2023-04-04T22:30:14.072Z,7.25
2023-04-04T22:32:46.077Z,6.25
2023-04-04T22:35:16.743Z,6.70
2023-04-04T22:37:47.576Z,5.70
2023-04-04T22:40:18.161Z,4.93
2023-04-04T22:42:48.907Z,4.32
2023-04-04T22:45:20.009Z,4.25
2023-04-04T22:47:50.533Z,4.68
2023-04-04T22:50:28.210Z,12.43
2023-04-04T22:53:00.272Z,7.95
2023-04-04T22:55:46.737Z,6.67
2023-04-04T22:58:24.645Z,6.05
2023-04-04T23:00:55.170Z,4.45
2023-04-04T23:03:25.871Z,3.75
2023-04-04T23:05:56.325Z,3.65
2023-04-04T23:08:30.307Z,3.00
2023-04-04T23:11:00.686Z,2.67
2023-04-04T23:13:31.242Z,4.45
2023-04-04T23:16:02.006Z,4.18
2023-04-04T23:18:32.505Z,5.78
2023-04-04T23:21:03.290Z,3.72
2023-04-04T23:23:33.906Z,3.65
2023-04-04T23:26:04.288Z,3.53
2023-04-04T23:28:34.704Z,4.18
2023-04-04T23:31:05.211Z,9.93
2023-04-04T23:33:35.833Z,31.95
2023-04-04T23:36:06.848Z,34.42
2023-04-04T23:38:37.763Z,33.35
2023-04-04T23:41:08.749Z,50.88
2023-04-04T23:43:40.413Z,41.30
2023-04-04T23:46:11.083Z,36.08
2023-04-04T23:48:43.083Z,26.13
2023-04-04T23:51:14.021Z,22.30
2023-04-04T23:53:48.022Z,15.57
2023-04-04T23:56:24.230Z,12.82
2023-04-04T23:59:02.489Z,10.85
